Stations météo

réclame
Mon MeteoGroup
Wasserkuppe, Allemagne (10544): Température de l'air & dewpoint: 15.06.2018 19:00:00 - 21.06.2018 19:00:00 (CEST)Wasserkuppe, Allemagne (10544): Température de l'air 5cm & Température de l'air -5cm: 15.06.2018 19:00:00 - 21.06.2018 19:00:00 (CEST)Wasserkuppe, Allemagne (10544): Température de l'air -20cm & Température de l'air -100cm: 15.06.2018 19:00:00 - 21.06.2018 19:00:00 (CEST)Wasserkuppe, Allemagne (10544): Vitesse du vent & gusts: 15.06.2018 19:00:00 - 21.06.2018 19:00:00 (CEST)Wasserkuppe, Allemagne (10544): Direction du vent: 15.06.2018 19:00:00 - 21.06.2018 19:00:00 (CEST)Wasserkuppe, Allemagne (10544): visibility: 15.06.2018 19:00:00 - 21.06.2018 19:00:00 (CEST)Wasserkuppe, Allemagne (10544): Ensoleillement: 15.06.2018 19:00:00 - 21.06.2018 19:00:00 (CEST)Wasserkuppe, Allemagne (10544): Quantités de précipitations: 15.06.2018 19:00:00 - 21.06.2018 19:00:00 (CEST)
Date & Time tt [°C] td [°C] tt 5cm [°C] tt -5cm [°C] tt -20cm [°C] tt -100cm [°C] ff [km/h] ff [knt] fx [km/h] fx [knt] dd vv [km] sd [min] rr [mm]
21.06.2018 19:00:00 13,4 1,5 14,8 22,4 18,0 11,3 34 18 53 29 NW 70 47 0,0
21.06.2018 18:00:00 13,9 1,8 16,4 22,7 18,0 11,3 29 16 53 29 NW 70 45 0,0
21.06.2018 17:00:00 14,8 3,6 15,7 22,1 17,9 11,3 26 14 53 29 WNW 50 49 0,0
21.06.2018 16:00:00 15,5 7,2 18,2 20,7 17,9 11,3 30 16 57 31 WNW 45 49 0,0
21.06.2018 15:00:00 13,7 9,8 14,9 20,0 17,8 11,3 24 13 40 22 WNW 25 7 0,4
21.06.2018 14:00:00 11,1 8,8 10,8 21,1 17,8 11,3 22 12 59 32 W 10 0 0,0
21.06.2018 13:00:00 14,4 11,4 15,3 22,1 17,7 11,3 26 14 45 25 WNW 55 3 0,0
21.06.2018 12:00:00 16,1 10,4 16,7 22,2 17,6 11,3 26 14 43 23 W 55 36 0,0
21.06.2018 11:00:00 17,5 11,5 19,3 21,1 17,7 11,3 29 16 48 26 WSW 55 40 0,0
21.06.2018 10:00:00 18,0 13,4 19,7 19,6 17,8 11,3 21 11 33 18 WSW 50 46 0,0
21.06.2018 09:00:00 16,7 12,9 18,3 17,9 17,9 11,3 16 9 28 15 W 50 60 0,0
21.06.2018 08:00:00 17,6 12,2 18,1 16,8 18,1 11,3 24 13 40 21 SW 70 60 0,0
21.06.2018 07:00:00 15,9 12,1 15,7 16,3 18,3 11,3 14 8 18 10 SW 70 57 0,0
21.06.2018 06:00:00 15,6 11,8 14,5 16,5 18,5 11,3 12 6 24 13 W 60 0 0,0
21.06.2018 05:00:00 14,7 11,4 12,6 17,0 18,7 11,3 18 10 24 13 SW 30 0 0,0
21.06.2018 04:00:00 14,7 11,4 11,7 17,6 18,9 11,3 16 9 18 10 SW 30 0 0,0
21.06.2018 03:00:00 16,2 11,9 14,4 18,4 19,0 11,3 14 8 16 9 WSW 35 0 0,0
21.06.2018 02:00:00 15,9 11,8 12,9 19,3 19,1 11,3 13 7 16 9 SW 35 0 0,0
21.06.2018 01:00:00 17,0 12,3 15,1 20,2 19,2 11,3 10 6 14 8 WSW 34 0 0,0
21.06.2018 00:00:00 17,1 11,7 14,6 21,4 19,1 11,3 10 5 11 6 W 40 0 0,0
20.06.2018 23:00:00 17,4 11,6 13,9 22,8 19,0 11,3 9 5 12 7 W 42 0 0,0
20.06.2018 22:00:00 18,0 11,1 16,1 24,5 18,8 11,3 11 6 14 8 W 47 6 0,0
20.06.2018 21:00:00 18,1 10,2 16,7 26,5 18,5 11,3 11 6 19 11 WSW 80 49 0,0
20.06.2018 20:00:00 21,1 11,3 21,6 28,1 18,2 11,3 13 7 22 12 W 82 60 0,0
20.06.2018 19:00:00 22,5 12,4 24,3 29,1 17,7 11,3 13 7 22 12 W 82 60 0,0
20.06.2018 18:00:00 23,2 13,2 25,6 29,4 17,3 11,3 14 7 23 12 WSW 82 60 0,0
20.06.2018 17:00:00 22,1 13,8 23,5 29,3 16,9 11,3 9 5 23 12 SW 80 53 0,0
20.06.2018 16:00:00 23,6 14,2 28,7 28,5 16,5 11,3 13 7 19 11 WSW 80 52 0,0
20.06.2018 15:00:00 21,6 12,6 24,0 27,3 16,3 11,2 11 6 21 12 WSW 70 51 0,0
20.06.2018 14:00:00 22,9 15,1 27,7 25,1 16,1 11,3 13 7 27 14 SSW 70 54 0,0
20.06.2018 13:00:00 20,0 13,2 22,8 22,8 16,0 11,2 11 6 21 12 SW 70 33 0,0
20.06.2018 12:00:00 19,4 14,0 21,5 21,0 15,9 11,3 13 7 23 12 SW 70 31 0,0
20.06.2018 11:00:00 18,5 13,5 21,7 18,6 16,0 11,3 13 7 21 12 S 55 30 0,0
20.06.2018 10:00:00 17,2 13,7 20,6 16,6 16,0 11,3 12 7 22 12 S 40 12 0,0
20.06.2018 09:00:00 15,3 12,8 16,5 15,4 16,2 11,3 20 11 24 13 S 35 19 0,0
20.06.2018 08:00:00 14,8 13,1 15,8 14,3 16,3 11,2 12 6 16 8 SSE 35 50 0,0
20.06.2018 07:00:00 13,8 11,4 13,1 13,6 16,5 11,3 8 5 10 5 SSE 30 60 0,0
20.06.2018 06:00:00 12,8 11,2 9,8 13,8 16,6 11,3 6 3 13 7 SE 18 23 0,0
20.06.2018 05:00:00 12,4 10,7 9,8 14,4 16,8 11,3 8 4 10 5 ESE 31 0 0,0
20.06.2018 04:00:00 13,1 10,8 10,7 14,9 16,9 11,3 7 4 13 7 N 31 0 0,0
20.06.2018 03:00:00 13,5 10,9 11,8 15,4 17,0 11,3 13 7 14 8 N 33 0 0,0
20.06.2018 02:00:00 13,4 11,2 11,7 16,0 17,1 11,3 13 7 14 8 N 29 0 0,0
20.06.2018 01:00:00 13,4 11,8 12,3 16,7 17,2 11,3 13 7 15 8 NNW 20 0 0,0
20.06.2018 00:00:00 13,5 12,2 12,0 17,5 17,2 11,2 8 5 13 7 NNW 14 0 0,0
19.06.2018 23:00:00 14,0 12,3 12,7 18,4 17,2 11,2 11 6 14 8 NNW 15 0 0,0
19.06.2018 22:00:00 14,6 12,7 14,0 19,3 17,2 11,2 10 5 12 7 NNW 18 0 0,0
19.06.2018 21:00:00 15,1 12,6 14,3 20,1 17,1 11,2 10 6 19 11 WNW 65 27 0,0
19.06.2018 20:00:00 15,5 12,9 15,6 20,7 17,0 11,2 10 6 18 10 WNW 65 4 0,0
19.06.2018 19:00:00 15,9 12,9 16,4 21,2 16,8 11,2 8 4 17 9 W 65 0 0,0
19.06.2018 18:00:00 15,8 12,7 16,4 21,8 16,7 11,2 11 6 18 10 W 70 0 0,0
19.06.2018 17:00:00 16,1 12,1 16,9 22,2 16,5 11,2 11 6 18 10 W 70 0 0,0
19.06.2018 16:00:00 16,5 12,1 18,2 22,4 16,3 11,2 12 6 22 12 W 65 0 0,0
19.06.2018 15:00:00 17,4 12,2 19,8 22,2 16,1 11,2 15 8 21 12 WSW 70 6 0,0
19.06.2018 14:00:00 16,8 13,0 19,1 22,2 15,9 11,2 13 7 20 11 WSW 70 1 0,0
19.06.2018 13:00:00 15,9 11,3 17,3 22,2 15,8 11,2 12 6 24 13 W 75 9 0,0
19.06.2018 12:00:00 16,9 11,8 19,3 20,8 15,8 11,2 11 6 24 13 W 75 47 0,0
19.06.2018 11:00:00 16,6 12,2 20,2 18,4 15,8 11,2 12 7 18 10 SW 60 48 0,0
19.06.2018 10:00:00 15,3 12,2 17,7 16,2 15,9 11,2 10 5 20 11 WSW 30 37 0,0
19.06.2018 09:00:00 13,1 11,8 14,5 15,0 16,0 11,2 16 9 27 15 W 10 7 0,0
19.06.2018 08:00:00 11,9 11,6 12,5 14,6 16,1 11,2 16 8 29 16 W 0,1 0 0,0
19.06.2018 07:00:00 12,0 11,7 12,1 14,6 16,2 11,2 16 9 31 17 W 0,1 0 0,0
19.06.2018 06:00:00 12,3 12,0 12,3 14,6 16,3 11,2 20 11 27 15 WSW 0,1 0 0,0
19.06.2018 05:00:00 12,4 12,0 12,3 14,7 16,5 11,2 19 10 26 14 WSW 0,3 0 0,0
19.06.2018 04:00:00 12,5 11,8 12,4 14,7 16,6 11,2 18 10 29 16 WSW 6 0 0,0
19.06.2018 03:00:00 12,4 11,5 12,4 14,8 16,7 11,2 22 12 31 17 WSW 13 0 0,0
19.06.2018 02:00:00 11,8 10,8 10,9 15,2 16,9 11,2 22 12 29 16 WSW 16 0 0,0
19.06.2018 01:00:00 11,5 10,2 10,7 15,9 16,9 11,2 20 11 27 14 SW 20 0 0,0
19.06.2018 00:00:00 11,7 10,3 10,9 16,6 17,0 11,2 21 11 27 14 SW 24 0 0,0
18.06.2018 23:00:00 11,3 9,6 10,1 17,7 17,0 11,2 18 10 23 13 SW 25 0 0,0
18.06.2018 22:00:00 11,9 9,3 10,8 18,9 16,9 11,2 17 9 26 14 WSW 29 0 0,0
18.06.2018 21:00:00 13,7 10,1 13,4 20,1 16,8 11,2 16 8 23 12 WSW 80 5 0,0
18.06.2018 20:00:00 15,0 9,9 15,6 21,0 16,7 11,2 16 9 28 15 WSW 80 31 0,0
18.06.2018 19:00:00 15,7 10,5 16,8 21,5 16,5 11,2 18 10 27 14 SW 80 26 0,0
18.06.2018 18:00:00 15,9 10,4 17,9 21,5 16,3 11,2 17 9 29 16 WSW 80 4 0,0
18.06.2018 17:00:00 15,1 9,7 16,2 21,8 16,1 11,2 18 10 31 17 WSW 70 1 0,0
18.06.2018 16:00:00 14,7 8,8 15,8 22,6 15,9 11,2 15 8 27 15 W 80 0 0,0
18.06.2018 15:00:00 16,2 9,9 18,8 22,6 15,7 11,2 19 10 29 16 SW 80 15 0,0
18.06.2018 14:00:00 15,6 9,7 17,7 21,8 15,6 11,2 16 8 29 15 SW 80 25 0,0
18.06.2018 13:00:00 15,4 8,8 18,9 20,3 15,6 11,2 16 9 30 16 WSW 75 20 0,0
18.06.2018 12:00:00 15,9 10,2 19,3 18,0 15,6 11,2 13 7 24 13 W 75 34 0,0
18.06.2018 11:00:00 13,2 8,1 15,0 16,4 15,7 11,2 14 8 23 12 WSW 80 0 0,0
18.06.2018 10:00:00 12,4 7,9 13,8 15,2 15,8 11,2 13 7 20 11 WSW 70 3 0,0
18.06.2018 09:00:00 11,6 8,0 12,7 14,0 15,9 11,2 13 7 18 10 WSW 60 29 0,0
18.06.2018 08:00:00 10,7 6,9 10,8 13,3 16,1 11,2 13 7 16 9 WSW 45 45 0,0
18.06.2018 07:00:00 9,7 6,8 9,9 13,0 16,3 11,2 8 5 15 8 W 45 17 0,0
18.06.2018 06:00:00 8,6 6,2 8,5 13,2 16,5 11,2 10 6 18 10 WNW 40 25 0,0
18.06.2018 05:00:00 8,2 6,2 7,7 13,9 16,6 11,2 12 6 18 10 W 24 0 0,0
18.06.2018 04:00:00 8,4 6,1 7,6 14,7 16,7 11,2 11 6 18 10 W 29 0 0,0
18.06.2018 03:00:00 9,2 6,6 8,7 15,4 16,9 11,2 11 6 16 8 W 33 0 0,0
18.06.2018 02:00:00 10,0 8,2 9,9 15,9 17,0 11,2 8 5 18 10 W 23 0 0,0
18.06.2018 01:00:00 10,6 9,4 10,6 16,5 17,0 11,2 14 7 25 14 WNW 11 0 0,0
18.06.2018 00:00:00 11,1 9,0 10,7 17,2 17,1 11,2 11 6 17 9 WNW 24 0 0,0
17.06.2018 23:00:00 11,4 8,7 10,7 18,3 17,1 11,2 10 5 18 10 W 27 0 0,0
17.06.2018 22:00:00 12,4 8,6 12,1 19,3 17,0 11,2 12 7 19 11 WNW 35 0 0,0
17.06.2018 21:00:00 13,3 8,7 13,2 20,4 16,9 11,2 13 7 24 13 WNW 80 0 0,0
17.06.2018 20:00:00 14,0 8,1 14,1 21,4 16,7 11,2 13 7 24 13 W 80 0 0,0
17.06.2018 19:00:00 14,8 8,5 15,2 22,4 16,5 11,2 10 5 23 12 W 82 2 0,0
17.06.2018 18:00:00 15,2 7,8 15,7 23,1 16,3 11,2 15 8 29 16 W 82 18 0,0
17.06.2018 17:00:00 15,5 7,7 16,7 23,5 16,0 11,2 12 7 30 16 WNW 82 11 0,0
17.06.2018 16:00:00 16,4 7,5 18,4 23,5 15,8 11,2 19 10 32 17 WSW 80 31 0,0
17.06.2018 15:00:00 16,4 8,0 19,0 22,5 15,6 11,2 17 9 31 17 W 70 44 0,0
17.06.2018 14:00:00 15,6 9,4 18,6 21,1 15,5 11,2 18 10 26 14 W 65 18 0,0
17.06.2018 13:00:00 14,1 8,6 15,3 21,3 15,4 11,2 14 8 27 15 WSW 60 23 0,0
17.06.2018 12:00:00 15,8 9,4 18,8 19,3 15,4 11,2 19 11 29 15 WSW 55 50 0,0
17.06.2018 11:00:00 14,0 9,4 16,2 17,0 15,5 11,2 14 8 24 13 WSW 35 39 0,0
17.06.2018 10:00:00 13,2 10,3 14,9 15,3 15,6 11,2 14 8 24 13 W 25 20 0,0
17.06.2018 09:00:00 12,3 10,7 14,0 14,4 15,7 11,2 14 8 25 13 WNW 0,6 5 0,0
17.06.2018 08:00:00 11,9 11,1 13,1 13,9 15,8 11,3 15 8 22 12 WNW 1,5 0 0,0
17.06.2018 07:00:00 11,9 11,5 12,2 13,6 16,0 11,3 11 6 18 10 WNW 0,8 0 0,0
17.06.2018 06:00:00 12,0 11,3 11,7 13,7 16,1 11,3 13 7 18 10 WNW 25 0 0,0
17.06.2018 05:00:00 12,4 10,4 11,0 14,0 16,3 11,3 13 7 16 9 W 13 0 0,0
17.06.2018 04:00:00 13,8 10,5 12,3 14,4 16,4 11,3 12 6 18 10 W 29 0 0,0
17.06.2018 03:00:00 13,0 10,3 11,8 14,9 16,5 11,3 13 7 29 16 W 18 0 0,0
17.06.2018 02:00:00 13,0 9,4 12,0 15,6 16,6 11,3 17 9 22 12 SSW 20 0 0,0
17.06.2018 01:00:00 12,7 9,3 11,4 16,4 16,6 11,3 16 8 21 12 SSW 22 0 0,0
17.06.2018 00:00:00 12,4 9,1 11,5 17,4 16,6 11,3 16 9 22 12 S 20 0 0,0
16.06.2018 23:00:00 12,8 9,0 11,6 18,6 16,5 11,3 21 11 22 12 S 21 0 0,0
16.06.2018 22:00:00 13,6 9,0 12,1 20,0 16,4 11,3 16 9 18 10 S 23 3 0,0
16.06.2018 21:00:00 15,6 9,7 13,8 21,6 16,2 11,3 13 7 18 10 S 45 45 0,0
16.06.2018 20:00:00 17,6 9,4 19,6 22,5 15,9 11,3 14 8 19 10 SSW 45 59 0,0
16.06.2018 19:00:00 18,8 9,9 20,7 22,3 15,7 11,3 13 7 21 11 SSW 50 39 0,0
16.06.2018 18:00:00 18,7 10,7 19,8 22,5 15,5 11,3 14 8 19 10 SSW 55 10 0,0
16.06.2018 17:00:00 18,5 9,7 19,4 22,7 15,2 11,3 10 6 19 11 WSW 60 5 0,0
16.06.2018 16:00:00 19,2 9,8 21,7 22,9 15,0 11,3 13 7 27 14 SSW 60 28 0,0
16.06.2018 15:00:00 19,3 10,2 25,6 21,2 14,8 11,3 16 9 25 14 SSE 55 31 0,0
16.06.2018 14:00:00 17,3 11,0 19,1 20,3 14,6 11,3 8 5 16 9 SW 40 2 0,0
16.06.2018 13:00:00 16,5 10,3 18,6 20,1 14,5 11,3 10 5 22 12 SSW 40 36 0,0
16.06.2018 12:00:00 17,7 10,9 21,4 17,7 14,5 11,3 15 8 22 12 S 45 14 0,0
16.06.2018 11:00:00 16,3 10,0 18,3 16,2 14,5 11,3 12 7 20 11 S 45 2 0,0
16.06.2018 10:00:00 15,3 10,4 17,0 15,0 14,5 11,3 13 7 17 9 S 40 1 0,0
16.06.2018 09:00:00 14,8 10,4 16,2 13,8 14,6 11,3 11 6 14 8 S 45 0 0,0
16.06.2018 08:00:00 14,0 9,5 14,7 13,0 14,7 11,3 8 4 10 5 SSE 45 0 0,0
16.06.2018 07:00:00 13,2 9,3 13,2 12,5 14,8 11,3 6 3 8 5 S 45 0 0,0
16.06.2018 06:00:00 12,3 9,3 11,6 12,4 14,9 11,3 7 4 11 6 S 40 0 0,0
16.06.2018 05:00:00 12,1 9,0 10,7 12,5 15,0 11,3 9 5 13 7 SSE 16 0 0,0
16.06.2018 04:00:00 12,1 9,4 11,1 12,6 15,1 11,3 10 5 15 8 SSE 15 0 0,0
16.06.2018 03:00:00 11,4 9,4 9,2 12,9 15,2 11,3 11 6 14 8 SSE 15 0 0,0
16.06.2018 02:00:00 11,2 8,7 7,5 13,6 15,3 11,3 10 5 12 7 SSE 14 0 0,0
16.06.2018 01:00:00 12,0 8,8 10,1 14,2 15,3 11,3 9 5 14 7 SSE 23 0 0,0
16.06.2018 00:00:00 12,2 8,4 10,7 14,7 15,3 11,3 8 4 11 6 SE 32 0 0,0
15.06.2018 23:00:00 12,7 9,1 11,9 15,2 15,3 11,3 4 2 8 4 SSE 36 0 0,0
15.06.2018 22:00:00 12,8 9,2 11,9 15,8 15,3 11,3 6 3 8 5 SSE 27 0 0,0
15.06.2018 21:00:00 13,4 10,0 13,4 16,2 15,3 11,3 5 3 8 5 SSE 45 2 0,0
15.06.2018 20:00:00 13,7 10,0 14,0 16,4 15,2 11,3 7 4 10 5 SE 50 0 0,0
15.06.2018 19:00:00 13,7 10,1 14,7 16,4 15,2 11,3 8 4 14 8 SE 55 0 0,0

tt = Température de l'air
td = dewpoint
tt 5cm = Température de l'air 5cm
tt -5cm = Température de l'air -5cm
tt -20cm = Température de l'air -20cm
tt -100cm = Température de l'air -100cm
ff = Vitesse du vent
fx = gusts
dd = Direction du vent
vv = visibility
sd = Ensoleillement
rr = Quantités de précipitations

stations d'obs. à proximité